createdAt,value
2023-02-11T00:01:27.975Z,103017.78
2023-02-11T00:03:56.054Z,103010.69
2023-02-11T00:06:24.685Z,103016.59
2023-02-11T00:08:52.291Z,103010.16
2023-02-11T00:11:21.374Z,103013.88
2023-02-11T00:13:48.778Z,103014.09
2023-02-11T00:16:19.945Z,103016.69
2023-02-11T00:18:47.659Z,103013.38
2023-02-11T00:21:20.349Z,103012.81
2023-02-11T00:23:48.117Z,103016.19
2023-02-11T00:26:27.060Z,103020.75
2023-02-11T00:28:54.866Z,103017.03
2023-02-11T00:31:24.130Z,103015.59
2023-02-11T00:33:51.765Z,103012.22
2023-02-11T00:36:28.634Z,103010.16
2023-02-11T00:38:57.864Z,103014.50
2023-02-11T00:41:26.069Z,103013.06
2023-02-11T00:43:53.469Z,103001.19
2023-02-11T00:46:21.574Z,103007.16
2023-02-11T00:48:49.486Z,103019.69
2023-02-11T00:51:16.981Z,103014.47
2023-02-11T00:53:44.286Z,103015.50
2023-02-11T00:56:11.597Z,103010.97
2023-02-11T00:58:38.911Z,103011.19
2023-02-11T01:01:06.795Z,103016.06
2023-02-11T01:03:34.808Z,103018.47
2023-02-11T01:06:06.448Z,103014.56
2023-02-11T01:08:34.049Z,103010.00
2023-02-11T01:11:05.523Z,103004.88
2023-02-11T01:13:37.126Z,103011.91
2023-02-11T01:16:07.546Z,103006.25
2023-02-11T01:18:35.308Z,103008.59
2023-02-11T01:21:02.724Z,102999.78
2023-02-11T01:23:30.184Z,103004.50
2023-02-11T01:25:57.681Z,102993.66
2023-02-11T01:28:27.982Z,103004.53
2023-02-11T01:30:59.073Z,102997.63
2023-02-11T01:33:26.456Z,103000.75
2023-02-11T01:35:53.885Z,103000.25
2023-02-11T01:38:24.571Z,102993.88
2023-02-11T01:41:00.016Z,103000.66
2023-02-11T01:43:31.138Z,103005.22
2023-02-11T01:46:02.194Z,103004.59
2023-02-11T01:48:43.777Z,103003.47
2023-02-11T01:51:19.287Z,102992.38
2023-02-11T01:54:08.243Z,102981.28
2023-02-11T01:56:58.194Z,102992.13
2023-02-11T01:59:40.940Z,102980.84
2023-02-11T02:02:11.847Z,102975.66
2023-02-11T02:04:46.512Z,102978.09
2023-02-11T02:07:32.574Z,102982.06
2023-02-11T02:10:05.917Z,102985.88
2023-02-11T02:12:33.757Z,102982.84
2023-02-11T02:15:25.614Z,102989.47
2023-02-11T02:18:31.890Z,102992.00
2023-02-11T02:21:24.080Z,102987.91
2023-02-11T02:24:31.324Z,102989.28
2023-02-11T02:27:10.477Z,102986.03
2023-02-11T02:30:17.545Z,102982.13
2023-02-11T02:33:16.681Z,102980.25
2023-02-11T02:36:04.383Z,102974.56
2023-02-11T02:38:37.858Z,102974.56
2023-02-11T02:41:11.810Z,102982.59
2023-02-11T02:43:45.124Z,102973.50
2023-02-11T02:46:16.643Z,102967.44
2023-02-11T02:48:46.709Z,102967.63
2023-02-11T02:51:43.007Z,102966.56
2023-02-11T02:54:41.045Z,102973.44
2023-02-11T02:57:40.703Z,102955.69
2023-02-11T03:00:49.357Z,102945.34
2023-02-11T03:03:47.290Z,102949.31
2023-02-11T03:06:51.407Z,102951.59
2023-02-11T03:09:44.061Z,102950.91
2023-02-11T03:12:13.664Z,102936.56
2023-02-11T03:14:42.062Z,102942.88
2023-02-11T03:17:10.411Z,102947.16
2023-02-11T03:19:41.090Z,102946.56
2023-02-11T03:22:17.260Z,102941.22
2023-02-11T03:24:45.318Z,102935.31
2023-02-11T03:27:29.084Z,102941.34
2023-02-11T03:30:00.101Z,102930.13
2023-02-11T03:32:32.812Z,102929.72
2023-02-11T03:35:07.775Z,102930.91
2023-02-11T03:37:43.668Z,102932.19
2023-02-11T03:40:19.217Z,102928.47
2023-02-11T03:42:52.687Z,102920.22
2023-02-11T03:45:22.876Z,102923.41
2023-02-11T03:47:56.221Z,102929.78
2023-02-11T03:50:25.963Z,102929.53
2023-02-11T03:52:54.476Z,102928.84
2023-02-11T03:55:25.923Z,102923.00
2023-02-11T03:57:53.349Z,102914.81
2023-02-11T04:00:20.842Z,102920.72
2023-02-11T04:02:48.179Z,102913.97
2023-02-11T04:05:16.442Z,102911.69
2023-02-11T04:07:43.719Z,102914.03
2023-02-11T04:10:12.427Z,102918.09
2023-02-11T04:12:39.817Z,102914.63
2023-02-11T04:15:07.871Z,102911.69
2023-02-11T04:17:35.433Z,102903.00
2023-02-11T04:20:03.490Z,102903.53
2023-02-11T04:22:31.267Z,102906.28
2023-02-11T04:24:58.709Z,102904.88
2023-02-11T04:27:26.121Z,102911.78
2023-02-11T04:29:54.397Z,102898.06
2023-02-11T04:32:21.783Z,102895.03
2023-02-11T04:34:49.213Z,102902.13
2023-02-11T04:37:16.527Z,102894.69
2023-02-11T04:39:43.849Z,102890.88
2023-02-11T04:42:11.323Z,102879.97
2023-02-11T04:44:38.881Z,102892.75
2023-02-11T04:47:06.857Z,102889.47
2023-02-11T04:49:37.203Z,102881.84
2023-02-11T04:52:05.099Z,102879.44
2023-02-11T04:54:32.487Z,102887.06
2023-02-11T04:56:59.826Z,102887.06
2023-02-11T04:59:27.464Z,102886.03
2023-02-11T05:01:55.953Z,102884.75
2023-02-11T05:04:23.693Z,102882.41
2023-02-11T05:06:51.063Z,102897.81
2023-02-11T05:09:18.494Z,102892.25
2023-02-11T05:11:45.944Z,102888.69
2023-02-11T05:14:13.301Z,102890.22
2023-02-11T05:16:40.723Z,102894.72
2023-02-11T05:19:08.078Z,102886.66
2023-02-11T05:21:36.591Z,102883.09
2023-02-11T05:24:04.339Z,102888.28
2023-02-11T05:26:32.444Z,102883.41
2023-02-11T05:28:59.998Z,102880.63
2023-02-11T05:31:27.454Z,102884.50
2023-02-11T05:33:54.743Z,102892.91
2023-02-11T05:36:22.128Z,102882.69
2023-02-11T05:38:50.661Z,102885.66
2023-02-11T05:41:18.025Z,102885.09
2023-02-11T05:43:47.671Z,102890.63
2023-02-11T05:46:15.015Z,102882.06
2023-02-11T05:48:42.362Z,102880.47
2023-02-11T05:51:09.709Z,102884.84
2023-02-11T05:53:37.159Z,102880.06
2023-02-11T05:56:07.387Z,102879.31
2023-02-11T05:58:34.744Z,102871.94
2023-02-11T06:01:02.154Z,102877.50
2023-02-11T06:03:29.501Z,102877.50
2023-02-11T06:05:56.843Z,102876.72
2023-02-11T06:08:24.214Z,102872.78
2023-02-11T06:10:51.607Z,102873.56
2023-02-11T06:13:19.785Z,102865.13
2023-02-11T06:15:56.372Z,102861.41
2023-02-11T06:18:24.110Z,102864.91
2023-02-11T06:20:51.512Z,102862.38
2023-02-11T06:23:18.895Z,102864.84
2023-02-11T06:25:46.270Z,102866.31
2023-02-11T06:28:13.681Z,102867.41
2023-02-11T06:30:41.733Z,102863.16
2023-02-11T06:33:09.096Z,102866.56
2023-02-11T06:35:39.003Z,102855.66
2023-02-11T06:38:06.292Z,102862.19
2023-02-11T06:40:33.733Z,102864.03
2023-02-11T06:43:01.061Z,102867.53
2023-02-11T06:45:28.498Z,102871.38
2023-02-11T06:47:55.792Z,102874.56
2023-02-11T06:50:23.202Z,102868.78
2023-02-11T06:52:50.486Z,102866.66
2023-02-11T06:55:17.895Z,102863.69
2023-02-11T06:57:45.284Z,102866.56
2023-02-11T07:00:13.475Z,102862.56
2023-02-11T07:02:40.810Z,102863.38
2023-02-11T07:05:08.673Z,102865.22
2023-02-11T07:07:37.096Z,102866.88
2023-02-11T07:10:05.821Z,102870.59
2023-02-11T07:12:33.142Z,102866.69
2023-02-11T07:15:00.608Z,102858.72
2023-02-11T07:17:27.981Z,102858.50
2023-02-11T07:19:55.410Z,102858.28
2023-02-11T07:22:22.849Z,102869.25
2023-02-11T07:24:50.537Z,102872.19
2023-02-11T07:27:20.720Z,102878.50
2023-02-11T07:29:48.757Z,102874.25
2023-02-11T07:32:16.246Z,102868.94
2023-02-11T07:34:43.619Z,102878.44
2023-02-11T07:37:10.977Z,102882.06
2023-02-11T07:39:38.416Z,102883.13
2023-02-11T07:42:06.017Z,102887.50
2023-02-11T07:44:33.419Z,102889.59
2023-02-11T07:47:00.881Z,102885.63
2023-02-11T07:49:28.718Z,102884.13
2023-02-11T07:51:56.010Z,102884.22
2023-02-11T07:54:23.408Z,102872.78
2023-02-11T07:56:50.840Z,102878.44
2023-02-11T07:59:18.389Z,102876.13
2023-02-11T08:01:45.854Z,102876.78
2023-02-11T08:04:13.277Z,102869.03
2023-02-11T08:06:42.930Z,102876.44
2023-02-11T08:09:16.905Z,102873.56
2023-02-11T08:11:44.793Z,102873.50
2023-02-11T08:14:12.417Z,102875.22
2023-02-11T08:16:39.975Z,102877.50
2023-02-11T08:19:11.833Z,102878.44
2023-02-11T08:21:40.268Z,102876.81
2023-02-11T08:24:07.899Z,102873.88
2023-02-11T08:26:35.980Z,102876.81
2023-02-11T08:29:10.670Z,102879.94
2023-02-11T08:31:41.083Z,102876.72
2023-02-11T08:34:11.623Z,102866.81
2023-02-11T08:36:40.606Z,102868.16
2023-02-11T08:39:19.291Z,102865.75
2023-02-11T08:41:49.489Z,102871.69
2023-02-11T08:44:18.548Z,102876.75
2023-02-11T08:46:46.135Z,102872.69
2023-02-11T08:49:14.200Z,102875.44
2023-02-11T08:51:41.864Z,102875.97
2023-02-11T08:54:10.044Z,102874.63
2023-02-11T08:56:38.658Z,102882.28
2023-02-11T08:59:07.224Z,102887.69
2023-02-11T09:01:35.005Z,102887.16
2023-02-11T09:04:02.499Z,102888.97
2023-02-11T09:06:29.929Z,102901.00
2023-02-11T09:08:58.261Z,102902.00
2023-02-11T09:11:35.778Z,102902.34
2023-02-11T09:14:04.761Z,102895.03
2023-02-11T09:16:35.755Z,102897.97
2023-02-11T09:19:04.803Z,102896.16
2023-02-11T09:21:33.062Z,102899.16
2023-02-11T09:24:00.610Z,102898.09
2023-02-11T09:26:32.785Z,102902.44
2023-02-11T09:29:01.155Z,102896.78
2023-02-11T09:31:30.663Z,102888.19
2023-02-11T09:34:01.851Z,102884.19
2023-02-11T09:36:31.728Z,102879.03
2023-02-11T09:39:00.940Z,102888.53
2023-02-11T09:41:58.502Z,102887.19
2023-02-11T09:44:29.476Z,102879.09
2023-02-11T09:47:00.363Z,102885.59
2023-02-11T09:49:47.616Z,102895.66
2023-02-11T09:52:33.314Z,102901.97
2023-02-11T09:55:03.245Z,102898.56
2023-02-11T09:57:36.514Z,102903.31
2023-02-11T10:00:18.781Z,102906.44
2023-02-11T10:02:58.267Z,102908.00
2023-02-11T10:05:43.159Z,102906.06
2023-02-11T10:08:21.288Z,102908.25
2023-02-11T10:11:04.156Z,102915.09
2023-02-11T10:14:01.421Z,102903.53
2023-02-11T10:16:44.949Z,102907.19
2023-02-11T10:19:15.064Z,102908.22
2023-02-11T10:21:58.489Z,102903.50
2023-02-11T10:24:29.030Z,102905.03
2023-02-11T10:26:59.355Z,102896.41
2023-02-11T10:29:40.628Z,102897.69
2023-02-11T10:32:24.923Z,102895.16
2023-02-11T10:34:54.312Z,102889.38
2023-02-11T10:37:21.676Z,102893.66
2023-02-11T10:39:49.040Z,102890.25
2023-02-11T10:42:19.380Z,102888.50
2023-02-11T10:45:05.002Z,102889.28
2023-02-11T10:47:37.949Z,102896.22
2023-02-11T10:50:40.521Z,102892.63
2023-02-11T10:53:21.035Z,102894.44
2023-02-11T10:55:52.423Z,102890.09
2023-02-11T10:58:26.368Z,102887.38
2023-02-11T11:00:58.976Z,102877.94
2023-02-11T11:03:31.254Z,102865.22
2023-02-11T11:06:01.238Z,102862.06
2023-02-11T11:08:40.401Z,102857.88
2023-02-11T11:11:13.867Z,102859.31
2023-02-11T11:13:54.185Z,102857.53
2023-02-11T11:16:27.104Z,102851.16
2023-02-11T11:19:07.645Z,102851.13
2023-02-11T11:21:43.094Z,102845.03
2023-02-11T11:24:40.069Z,102829.25
2023-02-11T11:27:16.694Z,102826.22
2023-02-11T11:29:51.353Z,102813.16
2023-02-11T11:32:33.586Z,102807.16
2023-02-11T11:35:10.061Z,102811.13
2023-02-11T11:37:39.165Z,102797.44
2023-02-11T11:40:22.623Z,102801.09
2023-02-11T11:43:07.347Z,102805.59
2023-02-11T11:45:34.787Z,102800.56
2023-02-11T11:48:14.070Z,102808.25
2023-02-11T11:50:45.286Z,102799.16
2023-02-11T11:53:20.785Z,102797.91
2023-02-11T11:56:00.206Z,102805.75
2023-02-11T11:58:29.006Z,102796.66
2023-02-11T12:01:08.285Z,102796.72
2023-02-11T12:04:23.353Z,102792.69
2023-02-11T12:07:25.745Z,102788.75
2023-02-11T12:09:58.905Z,102783.66
2023-02-11T12:13:05.951Z,102783.16
2023-02-11T12:15:44.501Z,102776.03
2023-02-11T12:18:45.584Z,102769.31
2023-02-11T12:21:33.284Z,102762.84
2023-02-11T12:24:30.086Z,102762.72
2023-02-11T12:27:13.231Z,102759.88
2023-02-11T12:29:55.004Z,102753.56
2023-02-11T12:32:40.836Z,102760.28
2023-02-11T12:35:32.704Z,102753.31
2023-02-11T12:38:19.053Z,102742.34
2023-02-11T12:40:59.076Z,102744.34
2023-02-11T12:43:38.406Z,102735.69
2023-02-11T12:46:30.126Z,102734.94
2023-02-11T12:49:20.289Z,102740.56
2023-02-11T12:51:58.293Z,102735.69
2023-02-11T12:54:40.623Z,102725.88
2023-02-11T12:57:15.063Z,102728.38
2023-02-11T12:59:50.053Z,102718.56
2023-02-11T13:02:41.492Z,102714.78
2023-02-11T13:05:27.082Z,102713.66
2023-02-11T13:08:02.961Z,102704.34
2023-02-11T13:10:43.071Z,102698.94
2023-02-11T13:13:37.224Z,102693.13
2023-02-11T13:16:20.357Z,102694.41
2023-02-11T13:19:06.606Z,102697.69
2023-02-11T13:21:43.976Z,102702.47
2023-02-11T13:24:19.790Z,102698.44
2023-02-11T13:27:20.945Z,102695.69
2023-02-11T13:30:11.504Z,102690.78
2023-02-11T13:32:54.009Z,102687.16
2023-02-11T13:35:39.635Z,102684.38
2023-02-11T13:38:28.373Z,102673.25
2023-02-11T13:41:04.430Z,102671.34
2023-02-11T13:43:34.300Z,102667.47
2023-02-11T13:46:11.820Z,102674.19
2023-02-11T13:48:46.668Z,102661.47
2023-02-11T13:51:17.825Z,102665.31
2023-02-11T13:53:53.460Z,102659.13
2023-02-11T13:56:31.501Z,102661.34
2023-02-11T13:59:02.294Z,102654.47
2023-02-11T14:02:06.896Z,102643.16
2023-02-11T14:04:53.189Z,102652.00
2023-02-11T14:07:49.269Z,102663.19
2023-02-11T14:10:41.596Z,102653.44
2023-02-11T14:13:27.785Z,102653.19
2023-02-11T14:16:36.460Z,102653.47
2023-02-11T14:19:06.207Z,102638.97
2023-02-11T14:21:41.477Z,102643.66
2023-02-11T14:24:15.640Z,102627.81
2023-02-11T14:27:04.957Z,102626.44
2023-02-11T14:29:51.004Z,102632.69
2023-02-11T14:32:49.160Z,102626.09
2023-02-11T14:35:39.447Z,102626.81
2023-02-11T14:38:43.699Z,102629.50
2023-02-11T14:41:19.606Z,102620.00
2023-02-11T14:43:51.599Z,102621.91
2023-02-11T14:46:24.278Z,102617.56
2023-02-11T14:48:55.334Z,102615.69
2023-02-11T14:51:31.296Z,102619.72
2023-02-11T14:54:23.526Z,102604.78
2023-02-11T14:57:17.213Z,102609.94
2023-02-11T15:00:05.691Z,102612.16
2023-02-11T15:02:36.980Z,102617.03
2023-02-11T15:05:17.336Z,102605.88
2023-02-11T15:07:56.999Z,102601.81
2023-02-11T15:10:35.273Z,102601.00
2023-02-11T15:13:04.760Z,102601.28
2023-02-11T15:15:33.038Z,102604.25
2023-02-11T15:18:03.309Z,102614.06
2023-02-11T15:20:33.596Z,102601.28
2023-02-11T15:23:04.169Z,102592.53
2023-02-11T15:25:34.033Z,102590.91
2023-02-11T15:28:28.881Z,102585.47
2023-02-11T15:30:58.867Z,102584.34
2023-02-11T15:33:26.384Z,102584.94
2023-02-11T15:35:53.745Z,102581.38
2023-02-11T15:38:21.049Z,102580.56
2023-02-11T15:41:00.852Z,102572.66
2023-02-11T15:43:46.278Z,102570.22
2023-02-11T15:46:39.807Z,102573.50
2023-02-11T15:49:19.164Z,102581.09
2023-02-11T15:51:47.118Z,102579.72
2023-02-11T15:54:30.001Z,102582.16
2023-02-11T15:57:07.527Z,102579.44
2023-02-11T15:59:41.592Z,102582.72
2023-02-11T16:02:25.673Z,102580.00
2023-02-11T16:04:58.904Z,102572.03
2023-02-11T16:07:38.529Z,102569.06
2023-02-11T16:10:29.943Z,102567.69
2023-02-11T16:13:06.435Z,102573.84
2023-02-11T16:15:33.899Z,102574.06
2023-02-11T16:18:12.783Z,102577.81
2023-02-11T16:20:41.980Z,102578.00
2023-02-11T16:23:22.018Z,102569.91
2023-02-11T16:25:54.845Z,102565.81
2023-02-11T16:28:22.397Z,102569.56
2023-02-11T16:30:54.178Z,102575.44
2023-02-11T16:33:21.865Z,102573.53
2023-02-11T16:35:49.374Z,102576.09
2023-02-11T16:38:19.577Z,102573.97
2023-02-11T16:40:49.350Z,102570.16
2023-02-11T16:43:20.281Z,102568.13
2023-02-11T16:45:48.229Z,102573.03
2023-02-11T16:48:19.208Z,102574.56
2023-02-11T16:50:52.224Z,102584.00
2023-02-11T16:53:24.188Z,102579.75
2023-02-11T16:55:54.219Z,102584.28
2023-02-11T16:58:21.676Z,102582.03
2023-02-11T17:00:49.651Z,102582.91
2023-02-11T17:03:26.145Z,102580.38
2023-02-11T17:05:55.932Z,102587.34
2023-02-11T17:08:23.540Z,102588.25
2023-02-11T17:10:51.184Z,102590.41
2023-02-11T17:13:18.879Z,102589.97
2023-02-11T17:15:46.258Z,102586.63
2023-02-11T17:18:16.897Z,102589.50
2023-02-11T17:20:44.288Z,102591.09
2023-02-11T17:23:11.666Z,102596.06
2023-02-11T17:25:39.023Z,102594.38
2023-02-11T17:28:08.248Z,102592.09
2023-02-11T17:30:35.787Z,102599.97
2023-02-11T17:33:03.147Z,102596.63
2023-02-11T17:35:30.478Z,102600.66
2023-02-11T17:37:58.721Z,102605.19
2023-02-11T17:40:26.404Z,102605.13
2023-02-11T17:42:53.779Z,102603.16
2023-02-11T17:45:22.469Z,102610.31
2023-02-11T17:47:49.956Z,102605.94
2023-02-11T17:50:17.467Z,102601.53
2023-02-11T17:52:45.035Z,102600.16
2023-02-11T17:55:12.392Z,102605.56
2023-02-11T17:57:40.451Z,102603.28
2023-02-11T18:00:09.515Z,102604.00
2023-02-11T18:02:45.366Z,102604.25
2023-02-11T18:05:12.709Z,102598.84
2023-02-11T18:07:40.431Z,102599.50
2023-02-11T18:10:08.720Z,102595.78
2023-02-11T18:12:36.177Z,102583.69
2023-02-11T18:15:03.626Z,102590.91
2023-02-11T18:17:31.067Z,102589.03
2023-02-11T18:19:58.777Z,102589.19
2023-02-11T18:22:26.747Z,102597.38
2023-02-11T18:24:55.113Z,102598.44
2023-02-11T18:27:22.578Z,102605.56
2023-02-11T18:29:50.263Z,102597.88
2023-02-11T18:32:17.610Z,102599.19
2023-02-11T18:34:44.893Z,102595.91
2023-02-11T18:37:14.299Z,102594.50
2023-02-11T18:39:42.349Z,102599.75
2023-02-11T18:42:10.327Z,102597.03
2023-02-11T18:44:37.703Z,102601.56
2023-02-11T18:47:05.079Z,102601.06
2023-02-11T18:49:36.199Z,102601.47
2023-02-11T18:52:03.935Z,102597.22
2023-02-11T18:54:31.288Z,102601.00
2023-02-11T18:56:58.672Z,102591.16
2023-02-11T18:59:25.997Z,102588.53
2023-02-11T19:01:53.344Z,102602.06
2023-02-11T19:04:23.341Z,102600.59
2023-02-11T19:06:50.933Z,102603.94
2023-02-11T19:09:19.982Z,102600.34
2023-02-11T19:11:47.963Z,102602.13
2023-02-11T19:14:18.364Z,102616.34
2023-02-11T19:16:46.425Z,102609.53
2023-02-11T19:19:14.167Z,102607.56
2023-02-11T19:21:43.780Z,102608.94
2023-02-11T19:24:12.823Z,102611.47
2023-02-11T19:26:40.178Z,102610.28
2023-02-11T19:29:07.797Z,102612.63
2023-02-11T19:31:35.369Z,102613.00
2023-02-11T19:34:03.455Z,102605.34
2023-02-11T19:36:31.030Z,102599.84
2023-02-11T19:39:02.117Z,102602.78
2023-02-11T19:41:30.652Z,102598.09
2023-02-11T19:43:58.037Z,102601.25
2023-02-11T19:46:28.115Z,102603.28
2023-02-11T19:48:55.611Z,102600.00
2023-02-11T19:51:22.955Z,102597.56
2023-02-11T19:53:51.275Z,102588.63
2023-02-11T19:56:20.827Z,102593.19
2023-02-11T19:58:48.324Z,102593.78
2023-02-11T20:01:18.901Z,102608.50
2023-02-11T20:03:49.979Z,102594.81
2023-02-11T20:06:23.278Z,102595.03
2023-02-11T20:08:59.110Z,102599.47
2023-02-11T20:11:28.880Z,102606.47
2023-02-11T20:13:57.282Z,102596.84
2023-02-11T20:16:44.570Z,102603.28
2023-02-11T20:19:17.818Z,102596.97
2023-02-11T20:21:47.560Z,102597.91
2023-02-11T20:24:17.472Z,102600.59
2023-02-11T20:26:46.914Z,102596.41
2023-02-11T20:29:15.930Z,102590.78
2023-02-11T20:31:43.577Z,102587.63
2023-02-11T20:34:12.123Z,102590.31
2023-02-11T20:36:40.635Z,102595.47
2023-02-11T20:39:08.987Z,102588.06
2023-02-11T20:41:39.857Z,102588.97
2023-02-11T20:44:09.979Z,102590.63
2023-02-11T20:46:40.332Z,102596.13
2023-02-11T20:49:08.810Z,102592.94
2023-02-11T20:51:37.351Z,102587.56
2023-02-11T20:54:06.332Z,102586.16
2023-02-11T20:56:36.814Z,102584.38
2023-02-11T20:59:05.829Z,102586.41
2023-02-11T21:01:42.474Z,102587.78
2023-02-11T21:04:13.182Z,102588.03
2023-02-11T21:06:45.377Z,102587.91
2023-02-11T21:09:22.072Z,102589.91
2023-02-11T21:11:51.603Z,102579.94
2023-02-11T21:14:19.970Z,102587.66
2023-02-11T21:16:48.181Z,102585.66
2023-02-11T21:19:18.497Z,102585.88
2023-02-11T21:21:45.927Z,102583.19
2023-02-11T21:24:13.389Z,102583.41
2023-02-11T21:26:40.898Z,102588.66
2023-02-11T21:29:08.714Z,102597.66
2023-02-11T21:31:37.849Z,102591.97
2023-02-11T21:34:06.362Z,102593.72
2023-02-11T21:36:34.148Z,102599.34
2023-02-11T21:39:03.816Z,102590.16
2023-02-11T21:41:31.295Z,102591.50
2023-02-11T21:43:58.603Z,102595.66
2023-02-11T21:46:28.990Z,102601.84
2023-02-11T21:48:57.412Z,102580.44
2023-02-11T21:51:26.248Z,102580.81
2023-02-11T21:53:59.244Z,102583.72
2023-02-11T21:56:28.228Z,102588.13
2023-02-11T21:58:57.606Z,102597.84
2023-02-11T22:01:30.965Z,102600.06
2023-02-11T22:03:58.898Z,102592.91
2023-02-11T22:06:31.080Z,102600.88
2023-02-11T22:09:01.585Z,102603.81
2023-02-11T22:11:31.616Z,102604.25
2023-02-11T22:13:59.291Z,102592.47
2023-02-11T22:16:27.669Z,102589.97
2023-02-11T22:18:58.374Z,102586.63
2023-02-11T22:21:25.988Z,102591.66
2023-02-11T22:23:54.591Z,102591.66
2023-02-11T22:26:23.727Z,102591.53
2023-02-11T22:28:52.021Z,102591.00
2023-02-11T22:31:22.359Z,102588.94
2023-02-11T22:33:50.065Z,102590.19
2023-02-11T22:36:26.948Z,102597.22
2023-02-11T22:38:54.949Z,102593.50
2023-02-11T22:41:23.199Z,102588.47
2023-02-11T22:43:50.534Z,102593.84
2023-02-11T22:46:19.586Z,102589.91
2023-02-11T22:48:48.962Z,102597.44
2023-02-11T22:51:19.760Z,102594.16
2023-02-11T22:53:57.216Z,102590.56
2023-02-11T22:56:24.899Z,102585.34
2023-02-11T22:58:55.764Z,102594.91
2023-02-11T23:01:23.271Z,102581.59
2023-02-11T23:03:50.680Z,102577.19
2023-02-11T23:06:18.180Z,102577.72
2023-02-11T23:08:46.420Z,102581.44
2023-02-11T23:11:20.197Z,102581.13
2023-02-11T23:13:49.773Z,102585.94
2023-02-11T23:16:19.650Z,102584.81
2023-02-11T23:18:48.439Z,102592.78
2023-02-11T23:21:22.177Z,102588.00
2023-02-11T23:23:53.742Z,102586.66
2023-02-11T23:26:21.238Z,102592.28
2023-02-11T23:28:48.603Z,102584.88
2023-02-11T23:31:23.681Z,102596.75
2023-02-11T23:33:51.615Z,102598.66
2023-02-11T23:36:21.091Z,102602.59
2023-02-11T23:38:48.900Z,102600.13
2023-02-11T23:41:17.145Z,102590.69
2023-02-11T23:43:44.585Z,102586.53
2023-02-11T23:46:12.032Z,102581.38
2023-02-11T23:48:41.315Z,102579.13
2023-02-11T23:51:11.665Z,102578.59
2023-02-11T23:53:39.538Z,102585.16
2023-02-11T23:56:13.988Z,102587.03
2023-02-11T23:58:41.382Z,102591.44
